Time;durP1;ratioP1;P1;durP2;ratioP2;P2;SDS_P1;SDS_P2;PMS_P1;PMS_P2;Temp;Humidity;BMP_temperature;BMP_pressure;BME280_temperature;BME280_humidity;BME280_pressure;Samples;Min_cycle;Max_cycle;Signal;HPM_P1;HPM_P2
2021/03/05 00:00:08;;;;;;;30.80;21.33;;;8.30;86.40;;;;;;4994872;28;20034;-76
2021/03/05 00:02:34;;;;;;;34.75;20.23;;;8.20;86.50;;;;;;4995438;28;20077;-76
2021/03/05 00:05:00;;;;;;;33.33;20.15;;;8.30;86.40;;;;;;4994248;28;20490;-76
2021/03/05 00:07:26;;;;;;;34.83;21.35;;;8.20;86.40;;;;;;4995833;28;20050;-76
2021/03/05 00:09:51;;;;;;;38.70;21.27;;;8.30;86.20;;;;;;4996036;28;20039;-76
2021/03/05 00:12:17;;;;;;;28.67;19.98;;;8.20;86.30;;;;;;4995733;28;20051;-76
2021/03/05 00:14:44;;;;;;;32.97;19.13;;;8.20;86.40;;;;;;4995335;28;20046;-76
2021/03/05 00:17:10;;;;;;;29.85;19.60;;;8.30;86.30;;;;;;4995737;28;20129;-76
2021/03/05 00:19:37;;;;;;;30.00;20.17;;;8.30;86.30;;;;;;4995075;28;20113;-77
2021/03/05 00:22:03;;;;;;;32.45;19.77;;;8.30;86.40;;;;;;4993894;28;20053;-76
2021/03/05 00:24:29;;;;;;;32.55;19.42;;;8.30;86.30;;;;;;4994250;28;20030;-76
2021/03/05 00:26:55;;;;;;;31.85;21.00;;;8.20;86.50;;;;;;4994292;28;20081;-76
2021/03/05 00:29:21;;;;;;;31.70;19.48;;;8.20;86.40;;;;;;4993878;28;20105;-76
2021/03/05 00:31:47;;;;;;;36.38;20.65;;;8.20;86.30;;;;;;4995590;28;20121;-77
2021/03/05 00:34:12;;;;;;;34.78;19.50;;;8.20;86.30;;;;;;4993771;28;20133;-77
2021/03/05 00:36:38;;;;;;;32.97;19.52;;;8.20;86.40;;;;;;4993925;28;20034;-77
2021/03/05 00:39:05;;;;;;;32.70;19.67;;;8.20;86.30;;;;;;4995485;28;20054;-77
2021/03/05 00:41:31;;;;;;;36.00;20.88;;;8.20;86.30;;;;;;4995111;28;20074;-77
2021/03/05 00:43:56;;;;;;;39.83;21.55;;;8.10;86.40;;;;;;4994136;28;20041;-77
2021/03/05 00:46:23;;;;;;;29.30;19.83;;;8.10;86.70;;;;;;4995025;28;20038;-77
2021/03/05 00:48:48;;;;;;;32.65;20.77;;;8.10;86.70;;;;;;4994888;28;20042;-77
2021/03/05 00:51:14;;;;;;;33.15;20.48;;;8.10;86.70;;;;;;4995040;28;20053;-77
2021/03/05 00:53:40;;;;;;;34.78;21.27;;;8.10;86.80;;;;;;4994060;28;20059;-77
2021/03/05 00:56:06;;;;;;;33.70;20.77;;;8.10;86.90;;;;;;4995489;28;20046;-77
2021/03/05 00:58:32;;;;;;;32.92;20.60;;;8.10;87.10;;;;;;4994971;28;20430;-77
2021/03/05 01:00:57;;;;;;;34.67;22.05;;;8.10;87.00;;;;;;4995644;28;20507;-76
2021/03/05 01:03:23;;;;;;;41.53;22.50;;;8.10;87.00;;;;;;4995496;28;20034;-76
2021/03/05 01:05:53;;;;;;;34.25;20.55;;;8.00;87.00;;;;;;4996149;28;20114;-76
2021/03/05 01:08:19;;;;;;;31.98;20.77;;;8.00;87.10;;;;;;4994920;28;20549;-75
2021/03/05 01:10:45;;;;;;;37.78;21.90;;;8.00;87.20;;;;;;4997708;28;20042;-76
2021/03/05 01:13:11;;;;;;;36.35;21.67;;;8.00;87.40;;;;;;4999449;28;20031;-76
2021/03/05 01:15:37;;;;;;;35.78;21.80;;;7.90;87.40;;;;;;4999873;28;20038;-76
2021/03/05 01:18:03;;;;;;;39.38;23.15;;;7.90;87.70;;;;;;4998963;28;20530;-76
2021/03/05 01:20:29;;;;;;;39.47;23.20;;;7.90;87.90;;;;;;4998194;28;20137;-76
2021/03/05 01:22:56;;;;;;;39.05;22.20;;;7.90;87.80;;;;;;4998997;28;20042;-76
2021/03/05 01:25:28;;;;;;;38.83;23.20;;;7.90;87.80;;;;;;4997174;28;20034;-76
2021/03/05 01:27:54;;;;;;;34.78;22.35;;;7.80;87.70;;;;;;4998394;28;20432;-76
2021/03/05 01:30:20;;;;;;;41.30;22.90;;;7.80;87.90;;;;;;4997075;28;20069;-76
2021/03/05 01:32:47;;;;;;;36.83;23.08;;;7.80;87.90;;;;;;4997138;28;20066;-76
2021/03/05 01:35:27;;;;;;;36.70;22.50;;;7.80;88.20;;;;;;4998240;28;20050;-76
2021/03/05 01:37:53;;;;;;;38.75;22.40;;;7.80;88.00;;;;;;4997637;28;20038;-76
2021/03/05 01:40:25;;;;;;;42.78;23.13;;;7.70;88.10;;;;;;4998426;28;20038;-76
2021/03/05 01:42:51;;;;;;;45.92;23.75;;;7.70;88.30;;;;;;4997092;28;20399;-76
2021/03/05 01:45:23;;;;;;;41.22;23.77;;;7.70;88.20;;;;;;4998796;28;20038;-76
2021/03/05 01:47:54;;;;;;;42.88;24.13;;;7.70;88.50;;;;;;4996581;28;20035;-76
2021/03/05 01:50:28;;;;;;;34.58;22.50;;;7.60;88.60;;;;;;4998148;28;20148;-76
2021/03/05 01:53:00;;;;;;;39.45;23.25;;;7.60;88.60;;;;;;4998202;28;20503;-76
2021/03/05 01:55:27;;;;;;;36.63;22.92;;;7.60;88.60;;;;;;4997839;28;20064;-76
2021/03/05 01:57:54;;;;;;;38.85;23.55;;;7.60;88.60;;;;;;4998102;28;20129;-76
2021/03/05 02:00:30;;;;;;;35.83;23.48;;;7.60;88.70;;;;;;4997804;28;20054;-76
2021/03/05 02:02:56;;;;;;;38.22;23.27;;;7.50;88.90;;;;;;4997946;28;20038;-76
2021/03/05 02:05:23;;;;;;;40.20;24.25;;;7.50;89.00;;;;;;4996819;28;20052;-76
2021/03/05 02:07:49;;;;;;;39.20;24.02;;;7.50;89.10;;;;;;4998259;28;20042;-76
2021/03/05 02:10:15;;;;;;;41.20;24.27;;;7.40;89.20;;;;;;4997719;28;20530;-76
2021/03/05 02:12:41;;;;;;;43.22;24.85;;;7.50;89.20;;;;;;4997597;28;20069;-77
2021/03/05 02:15:08;;;;;;;39.65;25.17;;;7.40;89.70;;;;;;4997498;28;20074;-76
2021/03/05 02:17:53;;;;;;;43.50;24.60;;;7.40;89.30;;;;;;4997446;28;20045;-76
2021/03/05 02:20:38;;;;;;;42.70;25.75;;;7.40;89.30;;;;;;4997421;28;20046;-76
2021/03/05 02:23:32;;;;;;;39.03;23.10;;;7.40;89.50;;;;;;4995190;28;20042;-76
2021/03/05 02:26:17;;;;;;;41.75;24.27;;;7.40;89.40;;;;;;4998006;28;20096;-77
2021/03/05 02:29:04;;;;;;;45.38;25.42;;;7.40;89.40;;;;;;4997359;28;20064;-76
2021/03/05 02:31:44;;;;;;;41.58;24.70;;;7.30;89.60;;;;;;4997945;28;20488;-77
2021/03/05 02:34:19;;;;;;;44.88;25.08;;;7.30;89.60;;;;;;4997240;28;20050;-77
2021/03/05 02:36:50;;;;;;;46.05;24.35;;;7.30;89.90;;;;;;4997852;28;20046;-77
2021/03/05 02:39:20;;;;;;;44.67;25.60;;;7.20;90.00;;;;;;4995967;28;20074;-76
2021/03/05 02:41:52;;;;;;;44.35;25.08;;;7.20;90.00;;;;;;4995880;28;20045;-77
2021/03/05 02:44:25;;;;;;;42.00;24.95;;;7.20;90.00;;;;;;4995573;28;20570;-77
2021/03/05 02:46:57;;;;;;;42.72;24.17;;;7.20;90.00;;;;;;4997450;28;20038;-77
2021/03/05 02:49:27;;;;;;;44.38;25.45;;;7.20;89.90;;;;;;4996940;28;20033;-76
2021/03/05 02:51:58;;;;;;;42.53;25.65;;;7.20;90.00;;;;;;4997007;28;20042;-76
2021/03/05 02:54:27;;;;;;;45.10;27.60;;;7.20;90.10;;;;;;4996930;28;20076;-76
2021/03/05 02:56:54;;;;;;;43.80;27.45;;;7.10;90.10;;;;;;4995732;28;20038;-76
2021/03/05 02:59:22;;;;;;;45.15;25.98;;;7.10;90.30;;;;;;4995443;28;20049;-76
2021/03/05 03:01:48;;;;;;;41.72;25.60;;;7.10;90.30;;;;;;4995915;28;20049;-76
2021/03/05 03:04:15;;;;;;;46.55;26.20;;;7.00;90.20;;;;;;4996993;28;20046;-76
2021/03/05 03:06:43;;;;;;;44.33;26.67;;;7.10;90.30;;;;;;4998003;28;20034;-76
2021/03/05 03:09:12;;;;;;;50.63;26.75;;;7.00;90.30;;;;;;4997774;28;20046;-76
2021/03/05 03:11:41;;;;;;;49.80;28.25;;;7.00;90.30;;;;;;4997587;28;20034;-76
2021/03/05 03:14:08;;;;;;;50.42;28.17;;;7.00;90.40;;;;;;4998155;28;20053;-76
2021/03/05 03:16:38;;;;;;;44.53;26.38;;;7.00;90.40;;;;;;4997112;28;20042;-76
2021/03/05 03:19:08;;;;;;;47.85;27.55;;;7.00;90.30;;;;;;4997976;28;20073;-77
2021/03/05 03:21:34;;;;;;;48.20;26.90;;;7.00;90.40;;;;;;4996915;28;20054;-76
2021/03/05 03:24:00;;;;;;;46.13;28.02;;;7.00;90.40;;;;;;4996339;28;20034;-76
2021/03/05 03:26:26;;;;;;;52.42;28.80;;;7.00;90.30;;;;;;4995558;28;20038;-76
2021/03/05 03:28:52;;;;;;;49.97;28.88;;;7.00;90.40;;;;;;4996378;28;20045;-76
2021/03/05 03:31:18;;;;;;;46.30;27.27;;;7.00;90.50;;;;;;4995495;28;20038;-76
2021/03/05 03:33:46;;;;;;;50.75;28.20;;;7.00;90.50;;;;;;4994965;28;20046;-76
2021/03/05 03:36:13;;;;;;;51.53;28.48;;;6.90;90.50;;;;;;4996077;28;20046;-76
2021/03/05 03:38:40;;;;;;;47.08;27.63;;;6.90;90.50;;;;;;4994755;28;20502;-76
2021/03/05 03:41:06;;;;;;;50.78;28.75;;;6.90;90.50;;;;;;4995897;28;20129;-76
2021/03/05 03:43:32;;;;;;;53.30;29.70;;;6.90;90.60;;;;;;4996105;28;20030;-76
2021/03/05 03:45:59;;;;;;;52.83;30.48;;;6.90;90.60;;;;;;4994571;28;20364;-76
2021/03/05 03:48:27;;;;;;;52.03;29.50;;;6.90;90.60;;;;;;4994810;28;20121;-76
2021/03/05 03:51:06;;;;;;;57.33;30.40;;;6.90;90.60;;;;;;4994508;28;20125;-76
2021/03/05 03:53:35;;;;;;;55.60;30.48;;;6.90;90.60;;;;;;4996387;28;20490;-76
2021/03/05 03:56:05;;;;;;;57.80;31.50;;;6.90;90.50;;;;;;4995682;28;20499;-77
2021/03/05 03:58:31;;;;;;;50.80;30.58;;;6.90;90.60;;;;;;4995785;28;20558;-77
2021/03/05 04:01:02;;;;;;;50.35;31.33;;;6.90;90.60;;;;;;4995614;28;20049;-76
2021/03/05 04:03:31;;;;;;;51.30;30.10;;;6.90;90.60;;;;;;4995912;28;20042;-76
2021/03/05 04:05:58;;;;;;;50.90;29.85;;;6.90;90.50;;;;;;4994508;28;20112;-76
2021/03/05 04:08:25;;;;;;;58.25;30.95;;;6.90;90.60;;;;;;4995634;28;20065;-76
2021/03/05 04:10:52;;;;;;;50.67;29.98;;;6.90;90.60;;;;;;4995384;28;20049;-76
2021/03/05 04:13:19;;;;;;;54.15;30.52;;;6.90;90.60;;;;;;4995400;28;20037;-76
2021/03/05 04:15:45;;;;;;;48.90;30.13;;;6.90;90.60;;;;;;4995366;28;20399;-76
2021/03/05 04:18:10;;;;;;;51.35;29.45;;;6.90;90.80;;;;;;4993714;28;20034;-76
2021/03/05 04:20:38;;;;;;;53.22;31.48;;;6.90;90.50;;;;;;4995277;28;20128;-77
2021/03/05 04:23:07;;;;;;;59.50;31.40;;;6.90;90.60;;;;;;4994168;28;20459;-75
2021/03/05 04:25:33;;;;;;;53.42;31.92;;;6.90;90.60;;;;;;4994280;28;20074;-76
2021/03/05 04:28:00;;;;;;;53.45;31.65;;;6.90;90.50;;;;;;4995827;28;20515;-76
2021/03/05 04:30:26;;;;;;;60.30;33.33;;;6.90;90.60;;;;;;4995157;28;20116;-76
2021/03/05 04:32:52;;;;;;;58.42;33.13;;;6.90;90.50;;;;;;4995350;28;20038;-76
2021/03/05 04:35:18;;;;;;;59.25;32.60;;;6.80;90.60;;;;;;4994831;28;20112;-76
2021/03/05 04:37:44;;;;;;;53.05;31.33;;;6.90;90.60;;;;;;4995195;28;20515;-76
2021/03/05 04:40:11;;;;;;;55.78;32.08;;;6.80;90.60;;;;;;4993873;28;20046;-76
2021/03/05 04:42:38;;;;;;;58.60;32.17;;;6.80;90.60;;;;;;4994972;28;20034;-76
2021/03/05 04:45:05;;;;;;;59.50;31.40;;;6.80;90.60;;;;;;4993537;28;20041;-76
2021/03/05 04:47:31;;;;;;;56.67;31.48;;;6.80;90.60;;;;;;4995045;28;20030;-76
2021/03/05 04:49:57;;;;;;;55.72;30.88;;;6.80;90.60;;;;;;4994229;28;20577;-76
2021/03/05 04:52:23;;;;;;;54.97;31.95;;;6.80;90.70;;;;;;4995040;28;20360;-76
2021/03/05 04:54:49;;;;;;;57.35;32.72;;;6.80;90.70;;;;;;4993978;28;20038;-76
2021/03/05 04:57:15;;;;;;;51.97;31.73;;;6.70;90.70;;;;;;4995186;28;20386;-76
2021/03/05 04:59:41;;;;;;;53.60;31.00;;;6.70;90.70;;;;;;4994925;28;20046;-76
2021/03/05 05:02:07;;;;;;;56.53;31.48;;;6.80;90.90;;;;;;4994799;28;20054;-77
2021/03/05 05:04:32;;;;;;;56.35;30.80;;;6.80;90.60;;;;;;4995204;28;20049;-76
2021/03/05 05:06:58;;;;;;;57.90;32.03;;;6.70;90.60;;;;;;4995413;28;20034;-76
2021/03/05 05:09:24;;;;;;;56.15;32.90;;;6.70;90.60;;;;;;4995340;28;20133;-76
2021/03/05 05:11:50;;;;;;;54.08;31.88;;;6.70;90.70;;;;;;4996796;28;20046;-76
2021/03/05 05:14:16;;;;;;;54.55;31.23;;;6.70;90.60;;;;;;4996872;28;20050;-76
2021/03/05 05:16:42;;;;;;;50.22;30.83;;;6.70;90.50;;;;;;4996611;28;20439;-76
2021/03/05 05:19:07;;;;;;;52.95;31.27;;;6.70;90.50;;;;;;4994805;28;20054;-76
2021/03/05 05:21:33;;;;;;;54.75;31.40;;;6.70;90.50;;;;;;4995281;28;20064;-76
2021/03/05 05:23:59;;;;;;;50.83;30.27;;;6.70;90.70;;;;;;4996508;28;20168;-76
2021/03/05 05:26:25;;;;;;;52.13;31.70;;;6.70;90.40;;;;;;4995238;28;20080;-76
2021/03/05 05:28:51;;;;;;;53.70;31.20;;;6.70;90.40;;;;;;4995529;28;20076;-76
2021/03/05 05:31:17;;;;;;;58.58;32.03;;;6.70;90.40;;;;;;4995909;28;20034;-76
2021/03/05 05:33:43;;;;;;;47.78;29.13;;;6.70;90.40;;;;;;4994528;28;20050;-76
2021/03/05 05:36:09;;;;;;;52.33;30.52;;;6.70;90.30;;;;;;4994586;28;20046;-76
2021/03/05 05:38:35;;;;;;;53.47;30.55;;;6.70;90.30;;;;;;4993245;28;20048;-76
2021/03/05 05:41:02;;;;;;;50.78;29.92;;;6.70;90.30;;;;;;4993486;28;20129;-76
2021/03/05 05:43:32;;;;;;;51.13;30.80;;;6.70;90.20;;;;;;4994681;28;20046;-76
2021/03/05 05:46:08;;;;;;;52.67;30.42;;;6.70;90.20;;;;;;4995037;28;20121;-76
2021/03/05 05:48:38;;;;;;;50.80;30.63;;;6.70;90.20;;;;;;4994317;28;20038;-76
2021/03/05 05:51:27;;;;;;;52.97;28.75;;;6.70;90.10;;;;;;4993101;28;20030;-76
2021/03/05 05:53:59;;;;;;;55.28;30.60;;;6.70;90.10;;;;;;4993195;28;20127;-76
2021/03/05 05:56:26;;;;;;;49.92;29.08;;;6.70;90.10;;;;;;4995013;28;20084;-76
2021/03/05 05:58:52;;;;;;;51.33;29.58;;;6.70;90.10;;;;;;4996337;28;20569;-76
2021/03/05 06:01:18;;;;;;;50.92;30.48;;;6.70;90.10;;;;;;4998633;28;20069;-77
2021/03/05 06:03:44;;;;;;;52.63;30.20;;;6.60;90.10;;;;;;4996330;28;20038;-77
2021/03/05 06:06:13;;;;;;;53.20;30.02;;;6.70;90.30;;;;;;4998259;28;20123;-76
2021/03/05 06:08:39;;;;;;;53.53;31.42;;;6.60;90.00;;;;;;4998243;28;20510;-76
2021/03/05 06:11:05;;;;;;;47.63;28.75;;;6.60;90.00;;;;;;4999625;28;20038;-76
2021/03/05 06:13:31;;;;;;;54.10;29.83;;;6.50;90.00;;;;;;5000613;28;20129;-76
2021/03/05 06:16:18;;;;;;;59.25;31.73;;;6.60;90.00;;;;;;5000600;28;20076;-76
2021/03/05 06:18:45;;;;;;;51.55;29.88;;;6.50;90.00;;;;;;4998502;28;20057;-76
2021/03/05 06:21:12;;;;;;;52.58;29.55;;;6.50;90.00;;;;;;4999295;28;20475;-76
2021/03/05 06:23:57;;;;;;;49.65;30.13;;;6.50;90.00;;;;;;4996174;28;20049;-76
2021/03/05 06:26:24;;;;;;;54.20;30.05;;;6.40;90.00;;;;;;4997455;28;20069;-76
2021/03/05 06:29:04;;;;;;;53.47;31.30;;;6.50;90.00;;;;;;4997307;28;20068;-76
2021/03/05 06:31:30;;;;;;;51.22;30.30;;;6.40;90.10;;;;;;4996265;28;20041;-76
2021/03/05 06:33:57;;;;;;;56.33;30.75;;;6.40;90.30;;;;;;4996057;28;20038;-76
2021/03/05 06:36:23;;;;;;;52.10;30.33;;;6.30;90.00;;;;;;4996262;28;20054;-76
2021/03/05 06:38:49;;;;;;;51.17;30.40;;;6.30;90.00;;;;;;4995965;28;20040;-76
2021/03/05 06:41:23;;;;;;;53.90;30.00;;;6.30;90.00;;;;;;4995851;28;20046;-76
2021/03/05 06:43:54;;;;;;;50.72;29.77;;;6.30;90.00;;;;;;4996034;28;20030;-76
2021/03/05 06:46:33;;;;;;;56.38;28.05;;;6.30;89.80;;;;;;4997668;28;20491;-75
2021/03/05 06:49:01;;;;;;;51.58;28.10;;;6.30;90.00;;;;;;4995766;28;20030;-76
2021/03/05 06:51:27;;;;;;;46.80;27.80;;;6.30;90.00;;;;;;4997062;28;20065;-75
2021/03/05 06:54:12;;;;;;;49.15;29.17;;;6.30;89.60;;;;;;4995733;28;20053;-76
2021/03/05 06:56:49;;;;;;;47.38;28.15;;;6.30;89.40;;;;;;4996495;28;20038;-76
2021/03/05 06:59:17;;;;;;;50.42;26.58;;;6.30;89.40;;;;;;4996769;28;20042;-76
2021/03/05 07:01:51;;;;;;;46.75;27.30;;;6.30;89.30;;;;;;4996647;28;20049;-76
2021/03/05 07:04:28;;;;;;;45.10;25.40;;;6.40;89.00;;;;;;4996312;28;20138;-76
2021/03/05 07:07:07;;;;;;;39.80;24.42;;;6.40;88.70;;;;;;4994879;28;20526;-76
2021/03/05 07:09:40;;;;;;;40.25;25.10;;;6.40;88.40;;;;;;4996034;28;20038;-76
2021/03/05 07:12:15;;;;;;;44.67;24.63;;;6.40;88.40;;;;;;4995021;28;20053;-76
2021/03/05 07:14:45;;;;;;;43.03;24.80;;;6.40;88.30;;;;;;4994942;28;20046;-76
2021/03/05 07:17:12;;;;;;;38.55;24.55;;;6.40;88.20;;;;;;4995392;28;20050;-76
2021/03/05 07:19:39;;;;;;;41.42;23.10;;;6.50;88.00;;;;;;4995912;28;20046;-76
2021/03/05 07:22:07;;;;;;;41.13;24.65;;;6.50;87.60;;;;;;4996024;28;20046;-76
2021/03/05 07:24:36;;;;;;;39.75;23.58;;;6.50;87.40;;;;;;4989902;28;20861;-76
2021/03/05 07:27:04;;;;;;;39.20;24.00;;;6.60;87.00;;;;;;4973867;28;20630;-77
2021/03/05 07:29:46;;;;;;;37.28;22.13;;;6.60;86.80;;;;;;4975830;28;20042;-76
2021/03/05 07:32:17;;;;;;;39.47;24.33;;;6.70;86.50;;;;;;4990950;28;20047;-76
2021/03/05 07:34:59;;;;;;;37.70;21.52;;;6.70;86.20;;;;;;4975696;28;20065;-76
2021/03/05 07:37:48;;;;;;;40.17;22.42;;;6.90;85.60;;;;;;4974459;28;20065;-76
2021/03/05 07:40:16;;;;;;;39.38;22.08;;;6.90;85.00;;;;;;4975413;28;20043;-76
2021/03/05 07:42:42;;;;;;;36.33;21.45;;;7.00;84.80;;;;;;4975038;28;20042;-77
2021/03/05 07:45:10;;;;;;;35.80;21.17;;;7.00;84.70;;;;;;4975339;28;20088;-76
2021/03/05 07:47:44;;;;;;;38.88;22.05;;;7.10;84.40;;;;;;4976031;28;20083;-76
2021/03/05 07:50:13;;;;;;;37.25;21.63;;;7.10;84.20;;;;;;4975485;28;20526;-76
2021/03/05 07:52:40;;;;;;;33.28;21.70;;;7.20;84.00;;;;;;4976394;28;20073;-76
2021/03/05 07:55:07;;;;;;;38.05;21.80;;;7.20;83.70;;;;;;4976102;28;20125;-76
2021/03/05 07:57:33;;;;;;;35.15;21.58;;;7.20;84.30;;;;;;4974660;28;20035;-77
2021/03/05 08:00:00;;;;;;;47.15;22.10;;;7.20;84.40;;;;;;4976363;28;20169;-76
2021/03/05 08:02:59;;;;;;;33.78;21.98;;;7.30;83.40;;;;;;4974797;28;20057;-76
2021/03/05 08:05:40;;;;;;;32.33;20.58;;;7.40;83.00;;;;;;4974565;28;20034;-76
2021/03/05 08:08:19;;;;;;;37.53;20.10;;;7.40;83.40;;;;;;4974844;28;20042;-76
2021/03/05 08:10:48;;;;;;;33.22;20.30;;;7.40;83.30;;;;;;4976280;28;20030;-76
2021/03/05 08:13:54;;;;;;;34.55;20.20;;;7.50;82.90;;;;;;4976044;28;20051;-76
2021/03/05 08:16:29;;;;;;;36.00;20.55;;;7.60;82.50;;;;;;4935331;29;20130;-76
2021/03/05 08:19:04;;;;;;;32.95;20.73;;;7.60;82.50;;;;;;4934488;29;20497;-77
2021/03/05 08:24:31;;;;;;;33.42;19.63;;;7.90;81.50;;;;;;4976136;28;20034;-75
2021/03/05 08:27:08;;;;;;;31.60;19.20;;;7.90;81.10;;;;;;4967312;28;20107;-74
2021/03/05 08:30:03;;;;;;;33.78;19.83;;;7.90;81.20;;;;;;4972706;28;20030;-73
2021/03/05 08:32:32;;;;;;;29.92;19.95;;;8.10;80.70;;;;;;4976017;28;20073;-77
2021/03/05 08:35:09;;;;;;;32.85;19.00;;;8.10;80.40;;;;;;4974625;28;20042;-76
2021/03/05 08:37:37;;;;;;;30.65;18.67;;;8.20;80.10;;;;;;4973736;28;20134;-78
2021/03/05 08:40:24;;;;;;;29.45;18.55;;;8.30;79.70;;;;;;4974940;28;20026;-76
2021/03/05 08:42:58;;;;;;;26.45;18.52;;;8.30;79.20;;;;;;4970554;28;20051;-78
2021/03/05 08:45:28;;;;;;;31.35;19.27;;;8.30;79.30;;;;;;4970625;28;20027;-76
2021/03/05 08:47:58;;;;;;;32.03;19.10;;;8.30;79.10;;;;;;4955944;29;20074;-76
2021/03/05 08:50:33;;;;;;;30.25;18.33;;;8.40;78.80;;;;;;4970883;28;20031;-76
2021/03/05 08:53:06;;;;;;;32.03;18.92;;;8.60;78.70;;;;;;4956159;28;20103;-80
2021/03/05 08:55:38;;;;;;;35.38;18.40;;;8.70;77.90;;;;;;4956541;29;20115;-79
2021/03/05 08:58:05;;;;;;;33.22;19.15;;;8.80;77.90;;;;;;4971317;28;20101;-78
2021/03/05 09:00:33;;;;;;;31.45;17.88;;;8.80;77.70;;;;;;4956492;29;20042;-78
2021/03/05 09:03:11;;;;;;;31.73;18.27;;;8.90;76.00;;;;;;4970789;28;20102;-80
2021/03/05 09:05:47;;;;;;;30.08;17.13;;;8.90;75.90;;;;;;4956462;29;20046;-80
2021/03/05 09:08:15;;;;;;;26.10;16.67;;;9.10;75.30;;;;;;4972367;28;20142;-77
2021/03/05 09:10:52;;;;;;;26.73;15.90;;;9.30;74.00;;;;;;4957227;29;20033;-77
2021/03/05 09:13:30;;;;;;;28.83;15.43;;;9.20;73.40;;;;;;4971076;28;20074;-78
2021/03/05 09:15:59;;;;;;;26.02;15.27;;;9.40;72.90;;;;;;4956147;29;20035;-77
2021/03/05 09:18:27;;;;;;;26.52;14.60;;;9.50;72.60;;;;;;4955767;29;20058;-76
2021/03/05 09:20:58;;;;;;;22.92;13.15;;;9.40;71.20;;;;;;4970488;28;20055;-75
2021/03/05 09:23:36;;;;;;;24.95;13.93;;;9.50;70.00;;;;;;4956041;28;20054;-76
2021/03/05 09:26:06;;;;;;;20.77;13.32;;;9.70;69.60;;;;;;4970761;28;20046;-74
2021/03/05 09:28:40;;;;;;;22.67;14.30;;;9.80;68.80;;;;;;4956216;29;20039;-76
2021/03/05 09:31:07;;;;;;;22.38;13.82;;;9.80;69.00;;;;;;4956166;28;20031;-75
2021/03/05 09:33:36;;;;;;;20.85;13.65;;;9.90;69.00;;;;;;4959712;29;20127;-75
2021/03/05 09:36:11;;;;;;;20.65;13.23;;;10.00;68.50;;;;;;4959722;29;20039;-78
2021/03/05 09:38:40;;;;;;;28.40;14.35;;;10.10;67.90;;;;;;4960541;29;20047;-79
2021/03/05 09:41:15;;;;;;;23.92;14.10;;;10.20;67.20;;;;;;4958644;29;20039;-75
2021/03/05 09:43:43;;;;;;;22.60;13.32;;;10.20;66.90;;;;;;4974404;28;20477;-76
2021/03/05 09:46:20;;;;;;;27.05;13.90;;;10.30;67.30;;;;;;4959925;28;20114;-76
2021/03/05 09:48:46;;;;;;;19.58;13.98;;;10.40;66.60;;;;;;4959374;29;20054;-76
2021/03/05 09:51:12;;;;;;;25.60;14.35;;;10.30;66.20;;;;;;4958039;28;20130;-76
2021/03/05 09:53:47;;;;;;;19.77;13.77;;;10.40;66.30;;;;;;4974299;28;20071;-76
2021/03/05 09:56:13;;;;;;;24.20;13.25;;;10.50;66.10;;;;;;4974455;28;20488;-76
2021/03/05 09:58:56;;;;;;;22.95;13.57;;;10.40;65.60;;;;;;4974285;28;20073;-76
2021/03/05 10:01:22;;;;;;;23.67;14.18;;;10.40;65.70;;;;;;4959313;29;20043;-76
2021/03/05 10:03:56;;;;;;;25.88;14.95;;;10.30;65.60;;;;;;4959350;28;20043;-76
2021/03/05 10:06:22;;;;;;;31.98;15.50;;;10.20;66.60;;;;;;4974106;28;20038;-76
2021/03/05 10:09:15;;;;;;;35.67;15.30;;;10.30;66.20;;;;;;4974085;28;20043;-76
2021/03/05 10:11:42;;;;;;;27.08;15.35;;;10.40;66.00;;;;;;4976885;28;20038;-76
2021/03/05 10:14:29;;;;;;;22.15;13.35;;;10.70;65.40;;;;;;4978367;28;20046;-75
2021/03/05 10:17:13;;;;;;;23.60;13.93;;;11.00;64.10;;;;;;4976508;28;20126;-76
2021/03/05 10:19:41;;;;;;;21.38;12.23;;;11.30;62.80;;;;;;4977332;28;20098;-76
2021/03/05 10:22:08;;;;;;;21.45;12.68;;;11.30;61.70;;;;;;4976874;28;20174;-84
2021/03/05 10:24:34;;;;;;;23.38;13.70;;;11.10;63.00;;;;;;4977957;28;20043;-75
2021/03/05 10:27:21;;;;;;;22.05;13.70;;;11.00;63.20;;;;;;4990294;28;20571;-76
2021/03/05 10:29:50;;;;;;;21.60;13.60;;;11.00;63.00;;;;;;4958494;29;20086;-76
2021/03/05 10:32:28;;;;;;;29.25;13.65;;;10.80;63.80;;;;;;4957221;28;20035;-77
2021/03/05 10:34:56;;;;;;;21.05;13.98;;;10.70;64.20;;;;;;4956999;28;20047;-76
2021/03/05 10:37:22;;;;;;;22.77;14.63;;;10.40;65.20;;;;;;4956975;29;20039;-77
2021/03/05 10:39:49;;;;;;;23.52;14.02;;;10.60;65.50;;;;;;4974513;28;20039;-76
2021/03/05 10:42:17;;;;;;;20.55;13.65;;;11.00;64.30;;;;;;4970611;28;20039;-76
2021/03/05 10:44:45;;;;;;;22.25;14.43;;;11.10;63.80;;;;;;4977001;28;20043;-76
2021/03/05 10:47:14;;;;;;;25.33;16.08;;;11.10;62.80;;;;;;4977090;28;20066;-76
2021/03/05 10:49:41;;;;;;;22.40;13.95;;;11.10;62.90;;;;;;4970824;29;20051;-75
2021/03/05 10:52:13;;;;;;;22.17;14.63;;;10.90;62.80;;;;;;4971377;28;20074;-76
2021/03/05 10:54:39;;;;;;;37.15;18.75;;;10.70;64.00;;;;;;4995322;28;20092;-76
2021/03/05 10:57:08;;;;;;;30.75;16.30;;;10.70;64.30;;;;;;4996343;28;20066;-76
2021/03/05 10:59:34;;;;;;;36.15;17.95;;;10.70;64.40;;;;;;4992499;28;20034;-76
2021/03/05 11:02:00;;;;;;;26.17;14.55;;;10.80;64.30;;;;;;4976259;28;20368;-77
2021/03/05 11:04:26;;;;;;;23.60;15.38;;;11.10;63.70;;;;;;4975682;28;20042;-77
2021/03/05 11:06:53;;;;;;;19.98;14.40;;;11.30;62.50;;;;;;4980093;28;20027;-78
2021/03/05 11:09:21;;;;;;;40.03;16.52;;;11.30;61.90;;;;;;4991109;28;20046;-77
2021/03/05 11:11:47;;;;;;;19.13;13.68;;;11.20;62.90;;;;;;4993773;28;20031;-77
2021/03/05 11:14:14;;;;;;;24.50;13.80;;;11.10;62.70;;;;;;4992121;28;20069;-77
2021/03/05 11:16:40;;;;;;;20.67;13.98;;;11.10;62.90;;;;;;4994134;28;20027;-78
2021/03/05 11:19:07;;;;;;;23.88;14.50;;;11.10;62.80;;;;;;4992112;28;20058;-78
2021/03/05 11:21:33;;;;;;;27.05;15.98;;;11.20;62.40;;;;;;4989834;28;20102;-78
2021/03/05 11:23:59;;;;;;;20.88;14.07;;;11.30;62.40;;;;;;4995074;28;20039;-77
2021/03/05 11:26:26;;;;;;;28.88;17.70;;;11.30;61.90;;;;;;4992569;28;20058;-78
2021/03/05 11:28:52;;;;;;;26.17;15.70;;;11.30;61.80;;;;;;4985199;28;20043;-78
2021/03/05 11:31:18;;;;;;;23.60;14.35;;;11.20;62.20;;;;;;4994378;28;20106;-78
2021/03/05 11:33:44;;;;;;;20.42;13.70;;;11.10;62.20;;;;;;4990694;28;20053;-78
2021/03/05 11:36:15;;;;;;;23.48;14.95;;;11.30;61.30;;;;;;4985555;28;20074;-78
2021/03/05 11:38:42;;;;;;;28.90;16.92;;;11.20;61.90;;;;;;4992671;28;20042;-77
2021/03/05 11:41:08;;;;;;;28.40;15.35;;;11.20;61.30;;;;;;4993736;28;20103;-77
2021/03/05 11:43:35;;;;;;;35.25;18.08;;;11.10;61.70;;;;;;5006933;28;20053;-78
2021/03/05 11:46:01;;;;;;;26.27;15.25;;;11.00;61.70;;;;;;4984478;28;20077;-78
2021/03/05 11:48:27;;;;;;;25.02;15.85;;;11.00;61.90;;;;;;4986889;28;20066;-78
2021/03/05 11:50:52;;;;;;;32.63;15.80;;;11.10;61.70;;;;;;4982804;28;20051;-78
2021/03/05 11:53:18;;;;;;;31.90;16.58;;;11.20;61.50;;;;;;4983120;28;20101;-77
2021/03/05 11:55:44;;;;;;;38.03;23.58;;;11.20;60.80;;;;;;4991905;28;20496;-78
2021/03/05 11:58:10;;;;;;;24.50;14.75;;;11.30;60.70;;;;;;4994912;28;20050;-78
2021/03/05 12:00:36;;;;;;;20.13;14.18;;;11.60;59.80;;;;;;4985782;28;20588;-77
2021/03/05 12:03:01;;;;;;;24.48;13.95;;;12.00;58.80;;;;;;4986468;28;20456;-77
2021/03/05 12:05:27;;;;;;;23.90;14.35;;;12.30;58.10;;;;;;4988679;28;20073;-77
2021/03/05 12:07:53;;;;;;;24.35;13.55;;;12.60;56.50;;;;;;4990107;28;20103;-77
2021/03/05 12:10:19;;;;;;;41.40;19.40;;;12.40;56.30;;;;;;4986277;28;20111;-77
2021/03/05 12:12:45;;;;;;;44.08;18.75;;;12.30;56.00;;;;;;4984761;28;20045;-80
2021/03/05 12:15:12;;;;;;;22.58;15.10;;;12.20;56.70;;;;;;4980325;28;20047;-80
2021/03/05 12:17:38;;;;;;;36.60;19.13;;;12.00;57.00;;;;;;4975659;28;20372;-80
2021/03/05 12:20:06;;;;;;;23.15;14.25;;;12.00;57.70;;;;;;4975839;28;20082;-80
2021/03/05 12:22:33;;;;;;;25.17;14.23;;;12.10;57.20;;;;;;4974497;28;20059;-80
2021/03/05 12:24:59;;;;;;;22.25;13.20;;;12.00;57.20;;;;;;4976215;28;20081;-81
2021/03/05 12:27:25;;;;;;;30.45;15.57;;;12.10;56.90;;;;;;4974560;28;20093;-81
2021/03/05 12:29:51;;;;;;;23.38;12.88;;;12.20;56.40;;;;;;4976187;28;20089;-80
2021/03/05 12:32:17;;;;;;;24.17;12.18;;;12.20;56.20;;;;;;4976346;28;20043;-80
2021/03/05 12:34:43;;;;;;;18.65;11.70;;;12.10;56.10;;;;;;4975864;28;20047;-80
2021/03/05 12:37:09;;;;;;;18.88;12.02;;;12.00;56.30;;;;;;4976270;28;20492;-80
2021/03/05 12:39:35;;;;;;;18.92;11.70;;;11.90;56.50;;;;;;4976225;28;20038;-81
2021/03/05 12:42:02;;;;;;;21.65;13.05;;;12.00;56.30;;;;;;4975068;28;20097;-81
2021/03/05 12:44:27;;;;;;;28.05;14.30;;;12.00;56.10;;;;;;4975509;28;20034;-80
2021/03/05 12:46:53;;;;;;;60.15;22.98;;;12.00;56.40;;;;;;4976070;28;20511;-80